Terminal Aerodrome Forecast
Issued by NWS

Home | Current Version | Previous Version | Graphics & Text | Print | Product List | Glossary On
Versions: 1 2 3 4 5 6 7 8 9 10 11 12 13 14 15 16 17 18 19 20 21 22
000
FTUS43 KICT 011402 AAB
TAFHUT
TAF AMD
KHUT 011402Z 0114/0212 VRB03KT P6SM BKN035
      TEMPO 0114/0116 2SM BR BKN020
     FM011600 34005KT P6SM SCT020 BKN035
     FM012300 01005KT P6SM SCT150=

USA.gov is the U.S. government's official web portal to all federal, state and local government web resources and services.